Weather observations for the past three days for
Chesterfield County Airport
Imperial (Metric)
Date Time (edt) Wind (mph) Vis. (mi.) Weather Sky Cond. Temperature (ºF) Relative Humidity Wind Chill (°F) Heat Index (°F) Pressure Precipitation (in)
Air Dwpt 6 hour altimeter (in) sea level (mb) 1 hr 3 hr 6 hr
Max. Min.
10 15:56 Calm 10.00 Fair CLR 84 46 27% 82 29.91 1013.8
10 14:56 Vrbl 5 10.00 Fair CLR 84 48.9 30% 82 29.93 1014.4
10 13:56 NW 8 10.00 Fair CLR 84 46.9 84 64 27% 82 29.95 1014.9
10 12:56 Vrbl 5 10.00 Fair CLR 81 48.9 33% 80 29.96 1015.3
10 11:56 N 6 10.00 Fair CLR 81 51.1 35% 80 29.97 1015.6
10 10:56 Vrbl 5 10.00 Fair CLR 78.1 51.1 39% 79 29.98 1016.0
10 09:56 W 6 10.00 Fair CLR 75 51.1 43% 78 29.97 1015.7
10 08:56 Vrbl 5 10.00 Fair CLR 70 55.9 61% 29.96 1015.4
10 07:56 W 6 10.00 Fair CLR 64.9 57 64.9 51.1 76% 29.95 1015.0
10 06:56 NW 5 1.50 Fog/Mist CLR 54 54 100% 29.92 1014.1
10 05:56 Calm 6.00 Fog/Mist CLR 53.1 53.1 100% 29.89 1013.2
10 04:56 Calm 9.00 Fair CLR 55 55 100% 29.88 1012.8
10 03:56 W 3 10.00 Fair CLR 57.9 55.9 93% 29.87 1012.5
10 02:56 W 5 10.00 Fair CLR 63 59 87% 29.87 1012.2
10 01:56 SW 5 10.00 Fair CLR 64 59 71.1 64 84% 29.87 1012.6
10 00:56 SW 6 10.00 A Few Clouds FEW070 64.9 59 81% 29.87 1012.4
09 23:56 SW 5 10.00 Fair CLR 64.9 57.9 78% 29.87 1012.3
09 22:56 S 6 10.00 Fair CLR 64.9 55.9 73% 29.87 1012.2
09 21:56 S 5 10.00 Fair CLR 66 55.9 70% 29.85 1011.6
09 20:56 S 6 10.00 Fair CLR 66.9 55.9 68% 29.82 1010.9
09 19:56 S 3 10.00 Fair CLR 71.1 55 78.1 71.1 57% 29.81 1010.3
09 18:56 SW 8 10.00 Partly Cloudy SCT100 73.9 54 50% 29.8 1010.0
09 17:56 SW 8 10.00 Mostly Cloudy BKN085 75 53.1 46% 78 29.8 1010.0
09 16:56 Vrbl 7 G 16 10.00 Mostly Cloudy BKN060 BKN080 77 54 45% 78 29.79 1009.7
09 15:56 SW 6 10.00 Overcast SCT060 OVC085 73.9 53.1 48% 29.8 1010.1
09 14:56 SW 6 10.00 Mostly Cloudy FEW065 BKN085 73.9 52 46% 29.82 1010.8
09 13:56 Vrbl 7 G 17 10.00 Overcast BKN060 OVC075 75 52 75.9 55.9 45% 78 29.84 1011.4
09 12:56 SW 12 10.00 Mostly Cloudy BKN060 73 51.1 46% 29.86 1012.0
09 11:56 S 10 10.00 A Few Clouds FEW060 73 54 51% 29.87 1012.4
09 10:56 S 9 10.00 Fair CLR 66.9 53.1 61% 29.9 1013.5
09 09:56 S 8 G 16 10.00 Fair CLR 66 53.1 63% 29.92 1014.2
09 08:56 SW 6 10.00 Fair CLR 61 54 78% 29.93 1014.5
09 07:56 S 5 10.00 Fair CLR 55.9 52 55.9 48.9 87% 29.93 1014.7
09 06:56 S 5 10.00 Fair CLR 51.1 48.9 92% 29.93 1014.4
09 05:56 S 6 10.00 Fair CLR 48.9 46.9 93% 47 29.92 1014.4
09 04:56 S 5 10.00 Fair CLR 51.1 48 89% 29.93 1014.5
09 03:56 S 3 10.00 Fair CLR 52 46.9 83% 29.93 1014.4
09 02:56 SW 6 10.00 Fair CLR 55 46.9 74% 29.93 1014.5
09 01:56 S 7 10.00 Fair CLR 53.1 46 64 51.1 77% 29.96 1015.7
09 00:56 S 8 10.00 Fair CLR 54 45 72% 29.96 1015.5
08 23:56 Calm 10.00 Fair CLR 54 42.1 64% 29.96 1015.6
08 22:56 S 6 10.00 Fair CLR 55.9 42.1 60% 29.96 1015.7
08 21:56 S 5 10.00 Fair CLR 55 41 59% 29.96 1015.7
08 20:56 S 3 10.00 Fair CLR 61 39 44% 29.95 1015.1
08 19:56 S 5 10.00 Fair CLR 64 39 72 64 40% 29.94 1015.0
08 18:56 Vrbl 5 10.00 Fair CLR 69.1 37.9 32% 29.93 1014.4
08 17:56 SW 9 10.00 Fair CLR 71.1 36 28% 29.94 1014.7
08 16:56 SW 10 10.00 Fair CLR 71.1 36 28% 29.94 1014.8
08 15:56 SW 13 G 16 10.00 Fair CLR 71.1 35.1 27% 29.95 1015.2
08 14:56 SW 8 10.00 Fair CLR 70 36 29% 29.98 1016.2
08 13:56 W 7 10.00 Fair CLR 69.1 33.1 69.1 52 26% 29.99 1016.7
08 12:56 S 8 10.00 Fair CLR 66 32 28% 30.02 1017.7
08 11:56 NW 8 10.00 Fair CLR 64.9 30 27% 30.05 1018.5
08 10:56 Vrbl 3 10.00 Fair CLR 63 34 34% 30.06 1018.9
08 09:56 Vrbl 3 10.00 Fair CLR 60.1 37.9 44% 30.05 1018.7
08 08:56 N 6 10.00 Fair CLR 57 45 64% 30.05 1018.7
08 07:56 NW 5 10.00 Fair CLR 52 46.9 52 39.9 83% 30.03 1018.2
08 06:56 Calm 10.00 Fair CLR 43 43 100% 30 1017.0
08 05:56 NW 3 0.25 Fog VV002 41 41 100% 29.98 1016.4
08 04:56 NW 7 7.00 Fair CLR 44.1 44.1 100% 41 29.96 1015.8
08 03:56 NW 5 8.00 Fair CLR 43 43 100% 41 29.95 1015.1
08 02:56 Calm 10.00 Fair CLR 45 44.1 97% 29.94 1014.9
08 01:56 Calm 10.00 Fair CLR 46.9 46.9 52 45 100% 29.93 1014.7 0.01
08 00:56 Calm 8.00 Fair CLR 46 45 96% 29.92 1014.4
07 23:56 Calm 10.00 A Few Clouds FEW070 46 46 100% 29.91 1014.1
07 22:56 Calm 9.00 Partly Cloudy FEW060 SCT075 46 46 100% 29.9 1013.8 0.01
07 21:56 Calm 10.00 Fair CLR 46.9 46 97% 29.89 1013.2 0.01
07 20:56 Calm 10.00 Overcast OVC110 51.1 48 89% 29.89 1013.1
07 19:56 Calm 10.00 Overcast BKN090 OVC110 52 46 55 52 80% 29.86 1012.3
07 18:56 E 3 10.00 Overcast OVC080 53.1 46 77% 29.85 1011.7
07 17:56 E 5 10.00 Light Rain OVC070 53.1 48 83% 29.84 1011.6
07 16:56 N 5 10.00 Overcast OVC060 55 46.9 74% 29.85 1011.8
Date Time (edt) Wind (mph) Vis. (mi.) Weather Sky Cond. Air Dwpt Max. Min. Relative Humidity Wind Chill (°F) Heat Index (°F) altimeter (in) sea level (mb) 1 hr 3 hr 6 hr
6 hour
Temperature (ºF) Pressure Precipitation (in)